createdAt,value
2024-03-24T00:00:45.428Z,85.6855
2024-03-24T00:01:50.321Z,86.2379
2024-03-24T00:02:55.106Z,85.2811
2024-03-24T00:04:00.033Z,85.5741
2024-03-24T00:05:04.884Z,84.2527
2024-03-24T00:06:09.666Z,85.4871
2024-03-24T00:07:14.530Z,84.9622
2024-03-24T00:08:19.309Z,84.7089
2024-03-24T00:09:24.205Z,84.3473
2024-03-24T00:10:29.246Z,85.9648
2024-03-24T00:11:33.999Z,84.6220
2024-03-24T00:12:38.778Z,84.2756
2024-03-24T00:13:43.656Z,84.3290
2024-03-24T00:14:48.511Z,85.0080
2024-03-24T00:15:53.254Z,84.2832
2024-03-24T00:16:58.049Z,84.8051
2024-03-24T00:18:02.862Z,83.8773
2024-03-24T00:19:07.748Z,83.7339
2024-03-24T00:20:12.513Z,83.5615
2024-03-24T00:21:17.444Z,83.9765
2024-03-24T00:22:22.391Z,83.6973
2024-03-24T00:23:27.161Z,83.0014
2024-03-24T00:24:31.931Z,83.0518
2024-03-24T00:25:36.745Z,82.9755
2024-03-24T00:26:41.523Z,82.5025
2024-03-24T00:27:46.359Z,82.1271
2024-03-24T00:28:51.197Z,84.1642
2024-03-24T00:29:55.989Z,83.7018
2024-03-24T00:31:00.840Z,84.4663
2024-03-24T00:32:05.738Z,83.2227
2024-03-24T00:33:10.703Z,83.1388
2024-03-24T00:34:15.667Z,83.3493
2024-03-24T00:35:20.416Z,83.0198
2024-03-24T00:36:25.277Z,83.0030
2024-03-24T00:37:30.224Z,83.0793
2024-03-24T00:38:35.206Z,83.9139
2024-03-24T00:39:42.501Z,83.3631
2024-03-24T00:40:50.702Z,82.6444
2024-03-24T00:41:55.515Z,83.9948
2024-03-24T00:43:00.480Z,84.0269
2024-03-24T00:44:05.391Z,84.5808
2024-03-24T00:45:10.167Z,83.8163
2024-03-24T00:46:15.027Z,84.2832
2024-03-24T00:47:19.974Z,84.5686
2024-03-24T00:48:24.736Z,85.3513
2024-03-24T00:49:29.621Z,85.0797
2024-03-24T00:50:34.550Z,84.8371
2024-03-24T00:51:39.309Z,83.4913
2024-03-24T00:52:44.133Z,83.7476
2024-03-24T00:53:48.922Z,83.5843
2024-03-24T00:54:53.740Z,84.3626
2024-03-24T00:55:58.494Z,84.7105
2024-03-24T00:57:03.331Z,83.4653
2024-03-24T00:58:08.136Z,84.1733
2024-03-24T00:59:12.933Z,84.6693
2024-03-24T01:00:17.734Z,85.1820
2024-03-24T01:01:22.512Z,85.1621
2024-03-24T01:02:27.320Z,85.7069
2024-03-24T01:03:32.107Z,85.4139
2024-03-24T01:04:36.858Z,85.2140
2024-03-24T01:05:41.736Z,85.9037
2024-03-24T01:06:46.675Z,85.5604
2024-03-24T01:07:51.460Z,85.9510
2024-03-24T01:08:56.304Z,86.0105
2024-03-24T01:10:01.076Z,85.9602
2024-03-24T01:11:05.896Z,85.7267
2024-03-24T01:12:10.855Z,85.8396
2024-03-24T01:13:15.610Z,86.2211
2024-03-24T01:14:20.464Z,86.4500
2024-03-24T01:15:25.278Z,86.3447
2024-03-24T01:16:30.053Z,87.2145
2024-03-24T01:17:34.847Z,86.9902
2024-03-24T01:18:39.668Z,87.0222
2024-03-24T01:19:44.463Z,86.4302
2024-03-24T01:20:49.317Z,86.9612
2024-03-24T01:21:54.238Z,86.7246
2024-03-24T01:22:58.978Z,87.2541
2024-03-24T01:24:03.854Z,87.4617
2024-03-24T01:25:08.822Z,87.3182
2024-03-24T01:26:13.557Z,87.2221
2024-03-24T01:27:18.382Z,87.4327
2024-03-24T01:28:23.341Z,87.8050
2024-03-24T01:29:28.256Z,87.4937
2024-03-24T01:30:33.029Z,87.7592
2024-03-24T01:31:37.894Z,87.8859
2024-03-24T01:32:42.698Z,87.8737
2024-03-24T01:33:47.499Z,87.3640
2024-03-24T01:34:52.292Z,87.4510
2024-03-24T01:35:57.108Z,87.8187
2024-03-24T01:37:02.081Z,87.9149
2024-03-24T01:38:07.028Z,88.4764
2024-03-24T01:39:11.961Z,88.9250
2024-03-24T01:40:16.735Z,88.8212
2024-03-24T01:41:21.605Z,89.2409
2024-03-24T01:42:26.507Z,89.1508
2024-03-24T01:43:31.305Z,88.9860
2024-03-24T01:44:36.067Z,89.7581
2024-03-24T01:45:40.878Z,88.9296
2024-03-24T01:46:45.744Z,89.0257
2024-03-24T01:47:50.520Z,89.2592
2024-03-24T01:48:55.335Z,89.8039
2024-03-24T01:50:00.232Z,89.8833
2024-03-24T01:51:04.947Z,89.9550
2024-03-24T01:52:09.922Z,90.2159
2024-03-24T01:53:14.853Z,90.5135
2024-03-24T01:54:19.637Z,90.3410
2024-03-24T01:55:24.472Z,90.4372
2024-03-24T01:56:29.283Z,90.7790
2024-03-24T01:57:34.105Z,90.7561
2024-03-24T01:58:38.886Z,90.9941
2024-03-24T01:59:43.668Z,91.3252
2024-03-24T02:00:48.590Z,91.2505
2024-03-24T02:01:53.586Z,90.9850
2024-03-24T02:02:58.520Z,90.9728
2024-03-24T02:04:03.465Z,90.9346
2024-03-24T02:05:08.416Z,90.9117
2024-03-24T02:06:13.199Z,91.2016
2024-03-24T02:07:18.009Z,91.7037
2024-03-24T02:08:22.993Z,91.5633
2024-03-24T02:09:27.958Z,91.4199
2024-03-24T02:10:32.692Z,91.5389
2024-03-24T02:11:37.526Z,91.9646
2024-03-24T02:12:42.499Z,92.2042
2024-03-24T02:13:47.476Z,92.4178
2024-03-24T02:14:52.404Z,92.2942
2024-03-24T02:15:57.201Z,92.1935
2024-03-24T02:17:02.006Z,92.0882
2024-03-24T02:18:07.010Z,92.2133
2024-03-24T02:19:11.827Z,92.5154
2024-03-24T02:20:16.646Z,92.5017
2024-03-24T02:21:21.526Z,92.6665
2024-03-24T02:22:26.288Z,92.6925
2024-03-24T02:23:31.137Z,92.7016
2024-03-24T02:24:36.087Z,92.8664
2024-03-24T02:25:40.874Z,92.9137
2024-03-24T02:26:45.710Z,93.0831
2024-03-24T02:27:50.677Z,93.1517
2024-03-24T02:28:55.548Z,93.1151
2024-03-24T02:30:00.313Z,93.2479
2024-03-24T02:31:05.204Z,93.2555
2024-03-24T02:32:10.114Z,93.2967
2024-03-24T02:33:14.920Z,93.3974
2024-03-24T02:34:19.788Z,93.5897
2024-03-24T02:35:24.674Z,93.7331
2024-03-24T02:36:29.447Z,93.8293
2024-03-24T02:37:34.376Z,93.9483
2024-03-24T02:38:39.124Z,93.9162
2024-03-24T02:39:43.939Z,94.1070
2024-03-24T02:40:49.216Z,94.0978
2024-03-24T02:41:54.053Z,94.2489
2024-03-24T02:42:58.861Z,94.3191
2024-03-24T02:44:03.795Z,94.3740
2024-03-24T02:45:08.755Z,94.4106
2024-03-24T02:46:13.780Z,94.4183
2024-03-24T02:47:18.534Z,94.4137
2024-03-24T02:48:23.296Z,94.3877
2024-03-24T02:49:28.250Z,94.5556
2024-03-24T02:50:33.039Z,94.6029
2024-03-24T02:51:37.855Z,94.6395
2024-03-24T02:52:42.823Z,94.5800
2024-03-24T02:53:47.787Z,94.6426
2024-03-24T02:54:52.719Z,94.6670
2024-03-24T02:55:57.507Z,94.5739
2024-03-24T02:57:02.392Z,94.5068
2024-03-24T02:58:07.360Z,94.3923
2024-03-24T02:59:12.093Z,94.4976
2024-03-24T03:00:16.887Z,94.4228
2024-03-24T03:01:21.857Z,94.3862
2024-03-24T03:02:26.604Z,94.5281
2024-03-24T03:03:31.450Z,94.6059
2024-03-24T03:04:36.215Z,94.6578
2024-03-24T03:05:41.053Z,94.5434
2024-03-24T03:06:45.846Z,94.4869
2024-03-24T03:07:50.659Z,94.4457
2024-03-24T03:08:55.624Z,94.3008
2024-03-24T03:10:00.576Z,94.3328
2024-03-24T03:11:05.502Z,94.4045
2024-03-24T03:12:10.269Z,94.4549
2024-03-24T03:13:15.177Z,94.5739
2024-03-24T03:14:20.075Z,94.6746
2024-03-24T03:15:24.846Z,94.6197
2024-03-24T03:16:29.700Z,94.4045
2024-03-24T03:17:34.644Z,94.0383
2024-03-24T03:18:39.447Z,93.8140
2024-03-24T03:19:44.255Z,93.7469
2024-03-24T03:20:49.200Z,93.7102
2024-03-24T03:21:54.003Z,93.8796
2024-03-24T03:22:58.822Z,93.9284
2024-03-24T03:24:03.607Z,93.9879
2024-03-24T03:25:08.463Z,94.0124
2024-03-24T03:26:13.384Z,93.8872
2024-03-24T03:27:18.323Z,93.6538
2024-03-24T03:28:23.073Z,93.5576
2024-03-24T03:29:27.946Z,93.5546
2024-03-24T03:30:32.869Z,93.6721
2024-03-24T03:31:37.654Z,93.8796
2024-03-24T03:32:42.509Z,94.0703
2024-03-24T03:33:47.445Z,94.1451
2024-03-24T03:34:52.193Z,94.1573
2024-03-24T03:35:57.084Z,94.1863
2024-03-24T03:37:02.003Z,94.3465
2024-03-24T03:38:06.771Z,94.4640
2024-03-24T03:39:11.614Z,94.7082
2024-03-24T03:40:16.557Z,94.8363
2024-03-24T03:41:21.304Z,94.9828
2024-03-24T03:42:26.192Z,95.1064
2024-03-24T03:43:31.114Z,95.0866
2024-03-24T03:44:35.881Z,95.0637
2024-03-24T03:45:40.876Z,95.0454
2024-03-24T03:46:45.689Z,95.0408
2024-03-24T03:47:50.457Z,95.1141
2024-03-24T03:48:55.627Z,95.1522
2024-03-24T03:50:00.591Z,95.2056
2024-03-24T03:51:05.541Z,95.3018
2024-03-24T03:52:10.545Z,95.3216
2024-03-24T03:53:15.465Z,95.4070
2024-03-24T03:54:20.393Z,95.5261
2024-03-24T03:55:25.187Z,95.5764
2024-03-24T03:56:30.075Z,95.6405
2024-03-24T03:57:34.887Z,95.7061
2024-03-24T03:58:39.679Z,95.7137
2024-03-24T03:59:44.555Z,95.7519
2024-03-24T04:00:49.503Z,95.7320
2024-03-24T04:01:54.306Z,95.6558
2024-03-24T04:02:59.137Z,95.5673
2024-03-24T04:04:04.007Z,95.5581
2024-03-24T04:05:08.813Z,95.5169
2024-03-24T04:06:13.685Z,95.4803
2024-03-24T04:07:18.609Z,95.4498
2024-03-24T04:08:23.451Z,95.3979
2024-03-24T04:09:28.254Z,95.3674
2024-03-24T04:10:33.148Z,95.3170
2024-03-24T04:11:37.977Z,95.3384
2024-03-24T04:12:42.708Z,95.3811
2024-03-24T04:13:47.547Z,95.4131
2024-03-24T04:14:52.454Z,95.4269
2024-03-24T04:15:57.372Z,95.4452
2024-03-24T04:17:02.294Z,95.4177
2024-03-24T04:18:07.079Z,95.3170
2024-03-24T04:19:11.941Z,95.2514
2024-03-24T04:20:16.854Z,95.1888
2024-03-24T04:21:21.677Z,95.1614
2024-03-24T04:22:26.523Z,95.0408
2024-03-24T04:23:31.403Z,94.9416
2024-03-24T04:24:36.199Z,94.8867
2024-03-24T04:25:41.000Z,94.8180
2024-03-24T04:26:45.969Z,94.7478
2024-03-24T04:27:50.764Z,94.7112
2024-03-24T04:28:55.628Z,94.6975
2024-03-24T04:30:00.510Z,94.7204
2024-03-24T04:31:05.376Z,94.7845
2024-03-24T04:32:10.151Z,94.8043
2024-03-24T04:33:15.084Z,94.7952
2024-03-24T04:34:19.867Z,94.6807
2024-03-24T04:35:24.780Z,94.6578
2024-03-24T04:36:29.627Z,94.6349
2024-03-24T04:37:34.405Z,94.6715
2024-03-24T04:38:39.296Z,94.7448
2024-03-24T04:39:44.218Z,94.8501
2024-03-24T04:40:49.226Z,94.9538
2024-03-24T04:41:54.187Z,94.9920
2024-03-24T04:42:58.966Z,94.9538
2024-03-24T04:44:03.778Z,94.9722
2024-03-24T04:45:08.568Z,95.0042
2024-03-24T04:46:13.396Z,94.9493
2024-03-24T04:47:18.344Z,94.9813
2024-03-24T04:48:23.314Z,95.0790
2024-03-24T04:49:28.269Z,95.1110
2024-03-24T04:50:33.051Z,95.1888
2024-03-24T04:51:37.864Z,95.2895
2024-03-24T04:52:45.459Z,95.3719
2024-03-24T04:53:50.645Z,95.5169
2024-03-24T04:54:55.696Z,95.5779
2024-03-24T04:56:00.587Z,95.6130
2024-03-24T04:57:05.537Z,95.6222
2024-03-24T04:58:10.317Z,95.6130
2024-03-24T04:59:15.141Z,95.6832
2024-03-24T05:00:20.131Z,95.7427
2024-03-24T05:01:25.066Z,95.7778
2024-03-24T05:02:30.055Z,95.7427
2024-03-24T05:03:35.004Z,95.6908
2024-03-24T05:04:39.944Z,95.5962
2024-03-24T05:05:44.845Z,95.5230
2024-03-24T05:06:49.659Z,95.5718
2024-03-24T05:07:54.505Z,95.5596
2024-03-24T05:08:59.438Z,95.5764
2024-03-24T05:10:04.229Z,95.6741
2024-03-24T05:11:09.076Z,95.7366
2024-03-24T05:12:13.998Z,95.8282
2024-03-24T05:13:18.782Z,95.9106
2024-03-24T05:14:23.642Z,95.9518
2024-03-24T05:15:28.513Z,96.0632
2024-03-24T05:16:33.290Z,96.0906
2024-03-24T05:17:38.214Z,96.1257
2024-03-24T05:18:43.033Z,96.1639
2024-03-24T05:19:47.828Z,96.1227
2024-03-24T05:20:52.766Z,96.1273
2024-03-24T05:21:57.663Z,96.0998
2024-03-24T05:23:02.495Z,96.1074
2024-03-24T05:24:07.250Z,96.1715
2024-03-24T05:25:12.064Z,96.1532
2024-03-24T05:26:16.928Z,96.1761
2024-03-24T05:27:21.889Z,96.2371
2024-03-24T05:28:27.093Z,96.2768
2024-03-24T05:29:35.233Z,96.2722
2024-03-24T05:30:40.025Z,96.2585
2024-03-24T05:31:44.964Z,96.2539
2024-03-24T05:32:49.886Z,96.2600
2024-03-24T05:33:54.859Z,96.2509
2024-03-24T05:34:59.817Z,96.2310
2024-03-24T05:36:04.597Z,96.2325
2024-03-24T05:37:09.402Z,96.2219
2024-03-24T05:38:14.211Z,96.1913
2024-03-24T05:39:18.999Z,96.1990
2024-03-24T05:40:23.990Z,96.2036
2024-03-24T05:41:28.935Z,96.1913
2024-03-24T05:42:33.708Z,96.1898
2024-03-24T05:43:38.510Z,96.1593
2024-03-24T05:44:43.318Z,96.1501
2024-03-24T05:45:48.108Z,96.1807
2024-03-24T05:46:52.909Z,96.1089
2024-03-24T05:47:57.722Z,96.0891
2024-03-24T05:49:02.520Z,96.1349
2024-03-24T05:50:07.325Z,96.1074
2024-03-24T05:51:12.279Z,96.1547
2024-03-24T05:52:19.027Z,96.1501
2024-03-24T05:53:24.978Z,96.2188
2024-03-24T05:54:29.732Z,96.2219
2024-03-24T05:55:34.636Z,96.1578
2024-03-24T05:56:39.413Z,96.1273
2024-03-24T05:57:44.303Z,96.1212
2024-03-24T05:58:49.157Z,96.0845
2024-03-24T05:59:53.942Z,96.0540
2024-03-24T06:00:58.823Z,96.0250
2024-03-24T06:02:03.785Z,95.9197
2024-03-24T06:03:08.546Z,95.8755
2024-03-24T06:04:13.449Z,95.8251
2024-03-24T06:05:18.306Z,95.7702
2024-03-24T06:06:23.087Z,95.6680
2024-03-24T06:07:27.955Z,95.5627
2024-03-24T06:08:32.870Z,95.4162
2024-03-24T06:09:37.653Z,95.3033
2024-03-24T06:10:42.548Z,95.0774
2024-03-24T06:11:47.419Z,94.7036
2024-03-24T06:12:52.187Z,94.4610
2024-03-24T06:13:57.084Z,94.4244
2024-03-24T06:15:01.903Z,94.3633
2024-03-24T06:16:06.670Z,94.1405
2024-03-24T06:17:11.456Z,93.8048
2024-03-24T06:18:16.307Z,93.4768
2024-03-24T06:19:21.110Z,93.3974
2024-03-24T06:20:25.905Z,93.5622
2024-03-24T06:21:30.671Z,93.7636
2024-03-24T06:22:35.486Z,93.6446
2024-03-24T06:23:40.439Z,93.6812
2024-03-24T06:24:45.351Z,93.5500
2024-03-24T06:25:50.139Z,93.2250
2024-03-24T06:26:55.003Z,93.0098
2024-03-24T06:27:59.926Z,92.4651
2024-03-24T06:29:04.745Z,91.8517
2024-03-24T06:30:09.565Z,91.7678
2024-03-24T06:31:14.463Z,91.5023
2024-03-24T06:32:19.267Z,91.5496
2024-03-24T06:33:24.144Z,90.9621
2024-03-24T06:34:29.083Z,91.0903
2024-03-24T06:35:33.835Z,91.0445
2024-03-24T06:36:38.695Z,90.2113
2024-03-24T06:37:43.476Z,90.0389
2024-03-24T06:38:48.285Z,90.3166
2024-03-24T06:39:53.248Z,90.2357
2024-03-24T06:40:58.034Z,90.4768
2024-03-24T06:42:02.835Z,90.5653
2024-03-24T06:43:07.664Z,90.0099
2024-03-24T06:44:12.454Z,90.1427
2024-03-24T06:45:17.407Z,90.0160
2024-03-24T06:46:22.370Z,89.9062
2024-03-24T06:47:27.293Z,88.9357
2024-03-24T06:48:32.091Z,89.0822
2024-03-24T06:49:36.921Z,88.8533
2024-03-24T06:50:41.828Z,88.7648
2024-03-24T06:51:46.660Z,88.1651
2024-03-24T06:52:51.480Z,88.8395
2024-03-24T06:53:56.375Z,88.9540
2024-03-24T06:55:01.182Z,88.9540
2024-03-24T06:56:06.038Z,89.0364
2024-03-24T06:57:10.998Z,89.9001
2024-03-24T06:58:15.821Z,88.8426
2024-03-24T06:59:20.594Z,88.7739
2024-03-24T07:00:25.403Z,88.9311
2024-03-24T07:01:30.199Z,89.3294
2024-03-24T07:02:35.168Z,89.0394
2024-03-24T07:03:40.130Z,88.8441
2024-03-24T07:04:45.092Z,89.4987
2024-03-24T07:05:50.061Z,89.6529
2024-03-24T07:06:55.009Z,89.5247
2024-03-24T07:07:59.969Z,89.4972
2024-03-24T07:09:04.934Z,89.3553
2024-03-24T07:10:09.867Z,89.0120
2024-03-24T07:11:14.641Z,88.5420
2024-03-24T07:12:19.492Z,89.3431
2024-03-24T07:13:24.498Z,89.3019
2024-03-24T07:14:29.215Z,89.1676
2024-03-24T07:15:34.055Z,88.6870
2024-03-24T07:16:38.961Z,87.9042
2024-03-24T07:17:43.736Z,88.1849
2024-03-24T07:18:48.610Z,87.3411
2024-03-24T07:19:53.546Z,87.8767
2024-03-24T07:20:58.306Z,87.6616
2024-03-24T07:22:03.136Z,86.2928
2024-03-24T07:23:08.086Z,86.4302
2024-03-24T07:24:12.862Z,85.0721
2024-03-24T07:25:17.657Z,85.2949
2024-03-24T07:26:24.921Z,85.6489
2024-03-24T07:27:30.230Z,84.3381
2024-03-24T07:28:34.976Z,84.9928
2024-03-24T07:29:39.840Z,84.6281
2024-03-24T07:30:44.789Z,84.4938
2024-03-24T07:31:49.726Z,85.7984
2024-03-24T07:32:54.517Z,85.7984
2024-03-24T07:33:59.337Z,85.6474
2024-03-24T07:35:04.289Z,85.4246
2024-03-24T07:36:09.233Z,85.6199
2024-03-24T07:37:14.023Z,85.8351
2024-03-24T07:38:18.844Z,85.9312
2024-03-24T07:39:23.822Z,85.5390
2024-03-24T07:40:28.767Z,84.6738
2024-03-24T07:41:33.748Z,84.1062
2024-03-24T07:42:39.784Z,84.1611
2024-03-24T07:43:45.546Z,83.6377
2024-03-24T07:44:50.351Z,82.8916
2024-03-24T07:45:55.158Z,83.1067
2024-03-24T07:46:59.922Z,83.5599
2024-03-24T07:48:04.764Z,82.8641
2024-03-24T07:49:09.714Z,83.7293
2024-03-24T07:50:14.481Z,84.1840
2024-03-24T07:51:19.342Z,83.1357
2024-03-24T07:52:24.279Z,83.1128
2024-03-24T07:53:29.027Z,83.6149
2024-03-24T07:54:33.910Z,83.7858
2024-03-24T07:55:38.824Z,82.1332
2024-03-24T07:56:43.589Z,83.1632
2024-03-24T07:57:48.442Z,82.4079
2024-03-24T07:58:53.382Z,82.9847
2024-03-24T07:59:58.266Z,83.1662
2024-03-24T08:01:03.063Z,83.2670
2024-03-24T08:02:07.942Z,82.6688
2024-03-24T08:03:12.843Z,82.7497
2024-03-24T08:04:17.696Z,83.3356
2024-03-24T08:05:22.516Z,83.9689
2024-03-24T08:06:27.412Z,82.9648
2024-03-24T08:07:32.260Z,81.7441
2024-03-24T08:08:37.055Z,81.6052
2024-03-24T08:09:41.846Z,80.5020
2024-03-24T08:10:46.695Z,79.2126
2024-03-24T08:11:51.622Z,78.1216
2024-03-24T08:12:56.405Z,78.1460
2024-03-24T08:14:01.230Z,78.0438
2024-03-24T08:15:06.190Z,77.4166
2024-03-24T08:16:10.956Z,76.5667
2024-03-24T08:17:15.773Z,78.0957
2024-03-24T08:18:20.758Z,77.7066
2024-03-24T08:19:25.565Z,78.4878
2024-03-24T08:20:30.437Z,81.0925
2024-03-24T08:21:35.328Z,78.0545
2024-03-24T08:22:40.120Z,77.1832
2024-03-24T08:23:44.935Z,76.9146
2024-03-24T08:24:49.885Z,78.1094
2024-03-24T08:25:54.712Z,77.6974
2024-03-24T08:26:59.470Z,77.5219
2024-03-24T08:28:04.429Z,78.2269
2024-03-24T08:29:09.206Z,79.2294
2024-03-24T08:30:14.036Z,75.6771
2024-03-24T08:31:18.991Z,75.5718
2024-03-24T08:32:23.957Z,76.4920
2024-03-24T08:33:28.738Z,73.9086
2024-03-24T08:34:33.557Z,73.1212
2024-03-24T08:35:38.480Z,73.8857
2024-03-24T08:36:43.273Z,72.4346
2024-03-24T08:37:48.114Z,73.2372
2024-03-24T08:38:53.058Z,75.0881
2024-03-24T08:39:57.821Z,75.6558
2024-03-24T08:41:02.695Z,76.0662
2024-03-24T08:42:07.582Z,75.8389
2024-03-24T08:43:12.368Z,74.8058
2024-03-24T08:44:17.138Z,74.9752
2024-03-24T08:45:21.954Z,75.0332
2024-03-24T08:46:26.881Z,74.7158
2024-03-24T08:47:31.691Z,75.9976
2024-03-24T08:48:42.043Z,74.9218
2024-03-24T08:49:47.174Z,73.8720
2024-03-24T08:50:52.201Z,74.2061
2024-03-24T08:51:57.067Z,73.3333
2024-03-24T08:53:01.953Z,73.1304
2024-03-24T08:54:06.755Z,75.8938
2024-03-24T08:55:11.673Z,76.0021
2024-03-24T08:56:16.516Z,75.2743
2024-03-24T08:57:21.334Z,76.2417
2024-03-24T08:58:26.180Z,77.4670
2024-03-24T08:59:30.969Z,77.9950
2024-03-24T09:00:35.747Z,76.7086
2024-03-24T09:01:41.345Z,77.3953
2024-03-24T09:02:46.265Z,76.7849
2024-03-24T09:03:51.049Z,76.7681
2024-03-24T09:04:55.945Z,77.2335
2024-03-24T09:06:00.846Z,76.3012
2024-03-24T09:07:05.656Z,78.0941
2024-03-24T09:08:10.410Z,75.7046
2024-03-24T09:09:15.250Z,75.6725
2024-03-24T09:10:20.021Z,76.0861
2024-03-24T09:11:24.805Z,73.3471
2024-03-24T09:12:29.591Z,74.5449
2024-03-24T09:13:34.356Z,73.2418
2024-03-24T09:14:39.309Z,72.7611
2024-03-24T09:15:44.247Z,71.7708
2024-03-24T09:16:49.030Z,71.3146
2024-03-24T09:17:53.865Z,69.8070
2024-03-24T09:18:58.800Z,68.4627
2024-03-24T09:20:03.580Z,67.9805
2024-03-24T09:21:08.695Z,65.6336
2024-03-24T09:22:13.503Z,65.6245
2024-03-24T09:23:18.264Z,67.4281
2024-03-24T09:24:23.074Z,66.5721
2024-03-24T09:25:27.939Z,66.3066
2024-03-24T09:26:32.733Z,65.7526
2024-03-24T09:27:37.531Z,63.8941
2024-03-24T09:28:42.519Z,62.7131
2024-03-24T09:29:47.511Z,61.4664
2024-03-24T09:30:52.437Z,61.2528
2024-03-24T09:31:57.391Z,60.5020
2024-03-24T09:33:02.196Z,59.4446
2024-03-24T09:34:06.973Z,61.9745
2024-03-24T09:35:13.553Z,62.9328
2024-03-24T09:36:18.712Z,59.9069
2024-03-24T09:37:23.535Z,60.4364
2024-03-24T09:38:30.853Z,62.4323
2024-03-24T09:39:37.534Z,63.2761
2024-03-24T09:40:42.334Z,62.5330
2024-03-24T09:41:47.143Z,65.7420
2024-03-24T09:42:52.113Z,66.5263
2024-03-24T09:43:56.883Z,65.6062
2024-03-24T09:45:01.662Z,64.2908
2024-03-24T09:46:06.452Z,62.2126
2024-03-24T09:47:11.314Z,62.3545
2024-03-24T09:48:16.284Z,64.3046
2024-03-24T09:49:21.227Z,64.7730
2024-03-24T09:50:26.000Z,65.6001
2024-03-24T09:51:30.832Z,60.6882
2024-03-24T09:52:35.762Z,61.9928
2024-03-24T09:53:40.560Z,57.5845
2024-03-24T09:54:45.411Z,59.5728
2024-03-24T09:55:50.318Z,58.3535
2024-03-24T09:56:55.108Z,56.2387
2024-03-24T09:58:07.017Z,57.2839
2024-03-24T09:59:10.727Z,57.2503
2024-03-24T10:00:15.546Z,59.9557
2024-03-24T10:01:20.347Z,59.0280
2024-03-24T10:02:25.232Z,55.3872
2024-03-24T10:03:30.003Z,55.2682
2024-03-24T10:04:34.788Z,55.0362
2024-03-24T10:05:39.714Z,55.1507
2024-03-24T10:06:44.500Z,57.2381
2024-03-24T10:07:49.322Z,59.7360
2024-03-24T10:08:54.102Z,62.5650
2024-03-24T10:09:58.996Z,60.2945
2024-03-24T10:11:03.983Z,61.4893
2024-03-24T10:12:08.743Z,63.4302
2024-03-24T10:13:13.565Z,64.3198
2024-03-24T10:14:18.515Z,63.4211
2024-03-24T10:15:23.474Z,63.0426
2024-03-24T10:16:28.485Z,63.1601
2024-03-24T10:17:33.387Z,64.6311
2024-03-24T10:18:38.373Z,64.4343
2024-03-24T10:19:43.277Z,64.7456
2024-03-24T10:20:48.055Z,64.9332
2024-03-24T10:21:52.941Z,67.2129
2024-03-24T10:22:57.843Z,67.2709
2024-03-24T10:24:02.704Z,70.3990
2024-03-24T10:25:07.491Z,70.2846
2024-03-24T10:26:12.261Z,71.0948
2024-03-24T10:27:17.091Z,72.1752
2024-03-24T10:28:22.036Z,73.0907
2024-03-24T10:29:26.967Z,72.3308
2024-03-24T10:30:31.765Z,72.3110
2024-03-24T10:31:36.597Z,73.4295
2024-03-24T10:32:41.525Z,73.2128
2024-03-24T10:33:46.316Z,73.7133
2024-03-24T10:34:51.162Z,70.7057
2024-03-24T10:35:56.111Z,68.6900
2024-03-24T10:37:00.909Z,62.9328
2024-03-24T10:38:05.711Z,65.7023
2024-03-24T10:39:10.669Z,63.3677
2024-03-24T10:40:15.424Z,63.5187
2024-03-24T10:41:20.209Z,66.4759
2024-03-24T10:42:25.041Z,62.9221
2024-03-24T10:43:29.879Z,58.8251
2024-03-24T10:44:34.664Z,61.3306
2024-03-24T10:45:39.477Z,60.8301
2024-03-24T10:46:44.431Z,64.4556
2024-03-24T10:47:49.230Z,60.6378
2024-03-24T10:48:54.046Z,61.2253
2024-03-24T10:49:58.999Z,61.6785
2024-03-24T10:51:03.794Z,61.4023
2024-03-24T10:52:08.681Z,58.3459
2024-03-24T10:53:13.446Z,57.7554
2024-03-24T10:54:18.222Z,57.2915
2024-03-24T10:55:23.154Z,54.2626
2024-03-24T10:56:28.135Z,57.7127
2024-03-24T10:57:32.917Z,55.6771
2024-03-24T10:58:37.711Z,52.5322
2024-03-24T10:59:42.675Z,57.2961
2024-03-24T11:00:47.454Z,60.1541
2024-03-24T11:01:52.290Z,62.4964
2024-03-24T11:02:57.211Z,65.2399
2024-03-24T11:04:02.014Z,67.1992
2024-03-24T11:05:06.826Z,68.7968
2024-03-24T11:06:14.769Z,71.6945
2024-03-24T11:07:20.894Z,72.9213
2024-03-24T11:08:25.810Z,76.0174
2024-03-24T11:09:30.607Z,76.9238
2024-03-24T11:10:35.461Z,80.3967
2024-03-24T11:11:40.365Z,80.6729
2024-03-24T11:12:45.140Z,83.2441
2024-03-24T11:13:50.016Z,83.9506
2024-03-24T11:14:54.943Z,85.5604
2024-03-24T11:15:59.705Z,85.0538
2024-03-24T11:17:04.596Z,84.7272
2024-03-24T11:18:09.499Z,84.2054
2024-03-24T11:19:14.282Z,83.9353
2024-03-24T11:20:19.134Z,82.4109
2024-03-24T11:21:24.086Z,80.8270
2024-03-24T11:22:28.869Z,77.6684
2024-03-24T11:23:33.707Z,77.9263
2024-03-24T11:24:38.610Z,78.9792
2024-03-24T11:25:43.452Z,77.1649
2024-03-24T11:26:48.279Z,77.1618
2024-03-24T11:27:53.242Z,77.9065
2024-03-24T11:28:58.184Z,75.4803
2024-03-24T11:30:03.179Z,78.0941
2024-03-24T11:31:08.117Z,71.3832
2024-03-24T11:32:13.131Z,70.6447
2024-03-24T11:33:18.013Z,73.2418
2024-03-24T11:34:22.956Z,71.2963
2024-03-24T11:35:27.743Z,73.4020
2024-03-24T11:36:32.650Z,75.0195
2024-03-24T11:37:37.616Z,75.6008
2024-03-24T11:38:42.403Z,74.8806
2024-03-24T11:39:47.191Z,69.8726
2024-03-24T11:40:53.486Z,70.9758
2024-03-24T11:41:58.415Z,70.1564
2024-03-24T11:43:03.378Z,65.7801
2024-03-24T11:44:08.295Z,66.9413
2024-03-24T11:45:13.278Z,63.1571
2024-03-24T11:46:18.055Z,63.0045
2024-03-24T11:47:22.898Z,61.6175
2024-03-24T11:48:27.807Z,62.5483
2024-03-24T11:49:32.595Z,62.3011
2024-03-24T11:50:37.445Z,62.2324
2024-03-24T11:51:42.384Z,59.6307
2024-03-24T11:52:49.362Z,61.2253
2024-03-24T11:53:55.817Z,61.4908
2024-03-24T11:55:00.642Z,60.8072
2024-03-24T11:56:05.441Z,62.8260
2024-03-24T11:57:10.400Z,58.8891
2024-03-24T11:58:15.225Z,58.7335
2024-03-24T11:59:19.998Z,58.7030
2024-03-24T12:00:24.962Z,58.7381
2024-03-24T12:01:29.927Z,59.3790
2024-03-24T12:02:34.876Z,62.3972
2024-03-24T12:03:39.849Z,60.4044
2024-03-24T12:04:44.742Z,61.6770
2024-03-24T12:05:49.552Z,62.0447
2024-03-24T12:06:54.418Z,61.9989
2024-03-24T12:07:59.325Z,64.6891
2024-03-24T12:09:04.133Z,62.8916
2024-03-24T12:10:08.951Z,63.5584
2024-03-24T12:11:13.842Z,62.5528
2024-03-24T12:12:18.657Z,61.2924
2024-03-24T12:13:23.519Z,60.9537
2024-03-24T12:14:28.403Z,61.3947
2024-03-24T12:15:33.221Z,59.0311
2024-03-24T12:16:38.080Z,60.7980
2024-03-24T12:17:42.994Z,61.1460
2024-03-24T12:18:47.790Z,58.9532
2024-03-24T12:19:52.541Z,60.0214
2024-03-24T12:20:57.339Z,57.5174
2024-03-24T12:22:02.237Z,53.3455
2024-03-24T12:23:07.199Z,54.4457
2024-03-24T12:24:12.097Z,55.0912
2024-03-24T12:25:16.914Z,54.9905
2024-03-24T12:26:21.742Z,57.5219
2024-03-24T12:27:26.663Z,58.8159
2024-03-24T12:28:31.608Z,55.7778
2024-03-24T12:29:36.405Z,54.2443
2024-03-24T12:30:41.216Z,52.3674
2024-03-24T12:31:46.043Z,52.8283
2024-03-24T12:32:50.881Z,52.6268
2024-03-24T12:33:55.780Z,53.7774
2024-03-24T12:35:00.575Z,57.5998
2024-03-24T12:36:05.430Z,56.9436
2024-03-24T12:37:10.365Z,57.9324
2024-03-24T12:38:15.183Z,58.0240
2024-03-24T12:39:20.005Z,58.3139
2024-03-24T12:40:24.957Z,58.1292
2024-03-24T12:41:29.923Z,60.0198
2024-03-24T12:42:34.865Z,60.8042
2024-03-24T12:43:39.841Z,60.3647
2024-03-24T12:44:44.791Z,58.9487
2024-03-24T12:45:49.767Z,59.1867
2024-03-24T12:46:54.710Z,55.2636
2024-03-24T12:47:59.506Z,52.7291
2024-03-24T12:49:04.325Z,53.2128
2024-03-24T12:50:17.641Z,53.7865
2024-03-24T12:51:19.960Z,54.8470
2024-03-24T12:52:24.776Z,56.4034
2024-03-24T12:53:29.596Z,52.7245
2024-03-24T12:54:34.491Z,52.8649
2024-03-24T12:55:39.308Z,53.1868
2024-03-24T12:56:44.139Z,51.8395
2024-03-24T12:57:49.092Z,52.4224
2024-03-24T12:58:56.242Z,52.3491
2024-03-24T13:00:02.874Z,53.5424
2024-03-24T13:01:07.640Z,51.0521
2024-03-24T13:02:12.487Z,50.6279
2024-03-24T13:03:17.339Z,50.1869
2024-03-24T13:04:22.123Z,55.4849
2024-03-24T13:05:27.026Z,49.9367